Hillingdon CC 25 12.10.97. Provisional results Speed order
NameClubTimeH'CapVet +-No.
Simon Howes *Giant RT 51:10 51:10 120
Paul Holdsworth Houns & Dis Whs 55:00 51:55 90
Matthew Doe 34th Nomads 55:38 52:33 70
John Woodburn Northover's VT 55:46 53:46+20:51100
Stephen Howells Corinium CC 57:07* 54:17 60
Martin Gibbs *Twickenham CC 57:07 50:47 91
Ian Welch High Wycombe CC 57:18 53:28 10
Bill Broadfield Chelmer CC 57:26 53:21+16:56115
Chris Sheppard Mildenhall CC 57:30 51:05 71
Gary Wells Charl'ville CC 57:43 54:28+ 9:47 50
Colin Boxall Kingston Whs 57:59 51:19 1
Andrew Murray Team Corridori 58:02 51:07 116
Mick Metcalf Hampshire RC 58:16 52:36+10:46 25
Paul Bennett Verulam CC 58:18 53:33+17:11 21
Peter Cookson Willesden CC 58:38 54:03+10:24 95
Mark Rogers Maid'hd & Dist 58:46 53:56 45
Bryan Harrison Stevenage CC 58:52 52:37+18:53 15
Colin Williamson Hemel Hemp CC 58:57 50:47+10:05102
Bob Addy Hemel Hemp CC 59:19 52:29+15:03 11
R MacFadyen Reading CC 59:19 52:54 101
Mike Lawrence Clevedon & Dis RC 59:33 53:23+17:04111
Simon Greenland Maid'hd & Dist 59:41 52:06+ 8:19 36
A Goatley CC Woking 59:45 53:10 41
David Rogers Hemel Hemp CC 59:52 51:32 72
Mike Stoaling Wessex RC 59:53 55:18+ 6:37 85
Matthew Smith Hillingdon CC 59:56 51:41 92
Michael Gowan *Festival RC 1:00:02 51:52+13:14112
Clive Willis *E'bourne Rovers 1:00:21 52:41+12:55 16
Mike Simkins *Festival RC 1:00:41 49:46+ 8:52103
Mick Roberts San Fairy Ann CC 1:00:54 51:54+12:55 12
Graeme Farragher Reading CC 1:01:01 51:51 2
John Richardson Willesden CC 1:01:03 54:05+16:08 86
Bernie Brown Severn RC 1:01:04 52:39+14:59 62
David Turnbull Hemel Hemp CC 1:01:18 54:43+ 9:49 31
David Newman Westerley RC 1:01:31 52:16 107
John Howells Corinium CC 1:01:32 54:07+12:50 46
Brian Hoadley Maid'hd & Dist 1:01:35 51:55+ 6:25 57
Denis Hedges Corinium CC 1:01:40 55:25+17:15 51
Richard Collins *Twickenham CC 1:01:40 50:30 73
Steve Leonard Charl'ville CC 1:01:51 52:26 27
Alan Jones Hampshire RC 1:02:00 52:20+12:22 67
David Reynolds Charl'ville CC 1:02:04 50:39+ 6:27 43
Vince Dey Viking Wheelers 1:02:09 52:49+ 6:22 97
G Seymour Lewes Wand CC 1:02:37 52:47+11:12 87
Clive Chappe Reading CC 1:02:45 54:45+ 8:22 6
Colin Bailey (Jv)Verulam CC 1:03:04 50:39 78
Don Hunt F'bo & Cam CC 1:03:06 54:26+15:49 32
Stewart Boucher Hemel Hemp CC 1:03:16 52:11+10:00 23
Graham Fielder Team Velo Vet 1:03:29 56:05+ 3:01 56
George Boore Sussex Nomads CC 1:03:38 51:58+12:25 93
Hector Selth Hemel Hemp CC 1:03:50 49:10+ 7:49 94
Malcolm Field Maid'hd & Dist 1:04:02 53:57+ 4:29 17
Gary Pritchard Maid'hd & Dist 1:04:06 48:36 114
Stephen Yates Middlesex RC 1:04:07 53:42+ 4:55 7
Jeff McGill Alton CC 1:04:13 52:28+10:09 3
Ian Gilding *North Hants RC 1:04:15 52:05+10:40 88
Chris Hart Oxonian C.C. 1:04:37 57:17+12:34 26
Dave Gaida Reading CC 1:04:55 55:40+13:25117
George Keene Bristol South CC 1:05:06 52:36+14:24 68
Chris Lowe Swindon RC 1:05:10 57:50 66
Michael Inder Swan Velo 1:05:41 48:16 4
Liz Creese (W)Willesden CC 1:06:03 52:34+11:42 44
Les Humphrey South Eastern RC 1:06:29 53:39+ 8:26 58
Les Harre-Young (T) Westerley RC 1:06:29 51:06+ 6:38 74
Charles Robson *E'bourne Rovers 1:06:38 53:23+14:39 28
Terry Young Clarence Wlrs 1:07:15 53:15+ 4:56 84
Matthew Payne Charl'ville CC 1:08:45 46:50 39
John Tooze Bath CC 1:08:45 53:00+ 6:44119
Kenneth Small Houns & Dis Whs 1:09:26 51:36+10:04109
Michelle Ayres (W)South Bucks RC 1:10:09 54:29 14
Brian James Brighton Mit CC 1:11:32 1:01:47+ 9:09 47
Bill Marshall Lon StChris CC 1:13:34 57:29+ 5:56 24
Joan Johnson (W)Hemel Hemp CC 1:14:15 53:35+ 6:26 59
Chris Dyrenforth (W)Hillingdon CC 1:17:08 1:00:23- 0:31 54
Arthur Frost Newbury RC 1:21:17 58:27+ 0:00 9

D.N.F. Nos :-
8,29,30,35,64,77,80,98,110,113,
D.N.S. Nos :-
5,13,18,19,20,22,33,34,37,38,40,42,48,49,52,53,55,61,63,65,69,75,76,79,81, 82,83,89,96,99,104,105,106,108,118,
Late Starts :-
Number 60 Time includes 1 Min 30 Seconds.